Motte Rimrock Reserve, California Weather observations

Data are for 10 minute period ending at time listed.
 Day   Time   Solar   Ave.   Ave.  Ave.  Vector  Max.   Baro.   Total    
  of    of     Rad.   Air    Rel.  Wind   Wind   Wind  Press.  Precip.   
Year   Day            Temp.  Hum.  Speed  Dir.   Gust                    
2015   (PST)  Kw/m2    F      %     mph   deg.    mph    mb.     in.     
-------------------------------------------------------------------------
 108    0:40   0.00   60.1    22    4.8   113     5.6   949.0    0.00 
 108    0:50   0.00   60.1    22    4.5   118     5.3   948.8    0.00 
 108    1:00   0.00   60.1    21    3.5   128     4.6   948.8    0.00 
 108    1:10   0.00   60.3    20    3.3   123     4.3   948.8    0.00 
 108    1:20   0.00   60.6    21    3.5   106     4.4   948.7    0.00 
 108    1:30   0.00   59.8    21    4.2    87     4.7   948.6    0.00 
 108    1:40   0.00   59.3    22    3.4    57     4.2   948.5    0.00 
 108    1:50   0.00   59.8    22    3.6    46     3.9   948.5    0.00 
 108    2:00   0.00   60.5    22    3.1    40     3.4   948.3    0.00 
 108    2:10   0.00   61.1    21    2.6    43     3.0   948.2    0.00 
 108    2:20   0.00   61.1    21    2.5    52     3.7   948.2    0.00 
 108    2:30   0.00   59.5    23    4.6    76     5.8   948.1    0.00 
 108    2:40   0.00   59.1    25    2.9    74     3.6   948.0    0.00 
 108    2:50   0.00   60.0    22    1.3    91     2.2   948.0    0.00 
 108    3:00   0.00   60.7    22    0.1   116     2.1   947.9    0.00 
 108    3:10   0.00   60.3    22    2.6   198     3.5   947.9    0.00 
 108    3:20   0.00   59.2    24    3.5   220     4.2   947.9    0.00 
 108    3:30   0.00   58.2    26    3.6   230     4.2   947.9    0.00 
 108    3:40   0.00   57.9    25    3.5   235     3.9   947.9    0.00 
 108    3:50   0.00   58.6    24    3.6   234     4.0   947.9    0.00 
 108    4:00   0.00   59.4    22    2.9   214     3.4   947.9    0.00 
 108    4:10   0.00   60.3    21    2.8   198     3.1   947.9    0.00 
 108    4:20   0.00   59.6    21    3.1   183     3.4   947.9    0.00 
 108    4:30   0.00   58.9    22    3.0   159     3.6   948.0    0.00 
 108    4:40   0.00   57.1    25    2.8   150     3.8   948.0    0.00 
 108    4:50   0.00   55.7    25    3.8   126     5.1   948.1    0.00 
 108    5:00   0.00   55.9    24    4.0   144     5.1   948.1    0.00 
 108    5:10   0.00   55.6    25    4.5   151     5.3   948.0    0.00 
 108    5:20   0.00   54.4    26    4.3   173     5.3   948.1    0.00 
 108    5:30   0.01   53.8    27    4.6   179     5.1   948.1    0.00 
 108    5:40   0.02   53.4    28    3.9   186     5.0   948.1    0.00 
 108    5:50   0.05   54.0    27    3.3   186     4.0   948.1    0.00 
 108    6:00   0.07   55.4    26    4.1   180     4.7   948.2    0.00 
 108    6:10   0.11   55.3    26    3.3   164     4.1   948.3    0.00 
 108    6:20   0.14   57.0    24    3.5   165     4.3   948.4    0.00 
 108    6:30   0.18   59.2    22    2.6   144     3.5   948.6    0.00 
 108    6:40   0.21   60.7    21    2.2   132     3.1   948.6    0.00 
 108    6:50   0.25   61.6    21    1.9   134     3.1   948.7    0.00 
 108    7:00   0.29   62.3    19    2.8   132     4.3   948.9    0.00 
 108    7:10   0.33   62.5    20    3.9   145     5.8   949.1    0.00 
 108    7:20   0.37   62.7    20    3.5   148     5.2   949.2    0.00 
 108    7:30   0.41   63.0    20    5.1   150     6.6   949.2    0.00 
 108    7:40   0.44   62.9    19    4.9   160     6.9   949.2    0.00 
 108    7:50   0.48   63.7    18    5.5   146     7.6   949.3    0.00 
 108    8:00   0.52   64.5    18    5.8   143     7.5   949.3    0.00 
 108    8:10   0.55   64.8    18    4.4   150     6.6   949.2    0.00 
 108    8:20   0.59   66.3    17    4.0   142     5.8   949.2    0.00 
 108    8:30   0.62   67.3    16    3.2   145     5.6   949.2    0.00 
 108    8:40   0.65   68.5    15    3.3   162     6.0   949.1    0.00 
 108    8:50   0.68   69.2    15    4.2   160     7.0   949.2    0.00 
 108    9:00   0.71   69.5    15    3.4   165     7.2   949.3    0.00 
 108    9:10   0.74   70.8    14    4.0   156     7.2   949.3    0.00 
 108    9:20   0.77   72.1    13    4.3   129     7.3   949.3    0.00 
 108    9:30   0.80   72.7    13    5.1   113     8.7   949.3    0.00 
 108    9:40   0.82   73.3    13    4.8   156    10.1   949.3    0.00 
 108    9:50   0.85   74.2    12    4.2   186     8.0   949.3    0.00 
 108   10:00   0.87   74.7    12    3.1   185     8.6   949.2    0.00 
 108   10:10   0.89   74.5    13    3.5   134     6.5   949.2    0.00 
 108   10:20   0.91   75.2    12    4.1   197    10.3   949.1    0.00 
 108   10:30   0.92   75.6    12    2.7   255     6.6   949.0    0.00 
 108   10:40   0.94   77.3    12    3.5   318     7.8   948.9    0.00 
 108   10:50   0.95   77.4    12    4.4   315    11.2   948.7    0.00 
 108   11:00   0.96   77.1    12    4.2   287     9.3   948.5    0.00 
 108   11:10   0.97   78.2    12    3.5   326     9.1   948.3    0.00 
 108   11:20   0.97   78.9    12    6.2   301    12.6   948.1    0.00 
 108   11:30   0.97   78.9    12    9.1   296    15.8   947.9    0.00 
 108   11:40   0.99   79.4    12    8.9   307    18.0   947.8    0.00 
 108   11:50   0.99   78.9    12   10.5   319    17.5   947.6    0.00 
 108   12:00   0.99   79.1    12   10.8   305    16.7   947.5    0.00 
 108   12:10   0.99   79.9    12   11.3   308    18.9   947.4    0.00 
 108   12:20   0.98   79.6    12   12.3   296    20.6   947.3    0.00 
 108   12:30   0.97   80.2    12   13.0   304    20.4   947.2    0.00 
 108   12:40   0.96   79.8    12   12.2   304    19.1   947.1    0.00 
 108   12:50   0.96   80.2    12   14.3   295    19.8   946.9    0.00 
 108   13:00   0.95   80.4    12   13.3   302    18.3   946.9    0.00 
 108   13:10   0.94   80.3    12   12.3   309    18.5   946.8    0.00 
 108   13:20   0.89   80.6    12   14.2   310    23.6   946.7    0.00 
 108   13:30   0.90   80.5    12   12.5   314    20.3   946.6    0.00 
 108   13:40   0.88   80.8    12   13.2   309    21.7   946.5    0.00 
 108   13:50   0.86   81.1    12   13.7   324    21.0   946.3    0.00 
 108   14:00   0.84   80.7    12   12.0   308    19.1   946.2    0.00 
 108   14:10   0.82   80.7    12   13.7   300    23.9   946.0    0.00 
 108   14:20   0.79   80.7    13   13.2   312    20.6   945.9    0.00 
 108   14:30   0.77   80.4    13   15.4   299    20.7   945.8    0.00 
 108   14:40   0.74   80.6    13   13.9   302    21.3   945.8    0.00 
 108   14:50   0.71   80.4    13   15.1   304    19.8   945.7    0.00 
 108   15:00   0.68   80.0    14   15.4   308    22.7   945.6    0.00 
 108   15:10   0.64   79.8    14   16.2   309    20.9   945.6    0.00 
 108   15:20   0.61   79.4    14   16.0   300    22.1   945.6    0.00 
 108   15:30   0.58   79.5    14   15.5   298    20.2   945.5    0.00 
 108   15:40   0.54   79.1    14   16.8   299    20.4   945.5    0.00 
 108   15:50   0.51   78.8    14   16.4   308    22.4   945.5    0.00 
 108   16:00   0.48   78.7    14   16.3   309    21.9   945.5    0.00 
 108   16:10   0.44   78.4    15   16.4   296    21.5   945.5    0.00 
 108   16:20   0.40   78.1    15   16.4   306    21.8   945.5    0.00 
 108   16:30   0.37   77.5    16   16.8   312    21.5   945.5    0.00 
 108   16:40   0.33   77.3    15   16.8   301    23.2   945.5    0.00 
 108   16:50   0.29   76.7    15   16.3   304    21.8   945.6    0.00 
 108   17:00   0.26   76.0    16   17.4   306    21.7   945.6    0.00 
 108   17:10   0.21   75.4    17   18.4   312    23.4   945.7    0.00 
 108   17:20   0.18   74.8    17   17.4   310    21.3   945.8    0.00 
 108   17:30   0.14   74.4    18   17.2   311    23.0   945.9    0.00 
 108   17:40   0.11   73.7    17   17.5   308    22.7   945.9    0.00 
 108   17:50   0.08   73.1    18   15.8   310    20.2   946.0    0.00 
 108   18:00   0.06   72.2    19   16.0   306    21.3   946.0    0.00 
 108   18:10   0.03   71.4    21   15.3   307    20.1   946.1    0.00 
 108   18:20   0.01   70.4    22   14.4   309    21.1   946.2    0.00 
 108   18:30   0.00   69.7    24   14.6   309    18.3   946.2    0.00 
 108   18:40   0.00   69.0    24   13.9   310    18.2   946.3    0.00 
 108   18:50   0.00   68.5    24   12.2   307    16.8   946.5    0.00 
 108   19:00   0.00   68.0    24   10.3   308    15.0   946.5    0.00 
 108   19:10   0.00   67.3    25    3.4   283     6.6   946.8    0.00 
 108   19:20   0.00   67.0    25    2.3   100     6.2   946.8    0.00 
 108   19:30   0.00   67.1    25    2.4   254     6.8   946.9    0.00 
 108   19:40   0.00   67.5    24    4.4   282     7.7   947.0    0.00 
 108   19:50   0.00   66.6    25    3.9   272     8.0   947.2    0.00 
 108   20:00   0.00   66.2    25    2.0   200     3.6   947.3    0.00 
 108   20:10   0.00   66.0    26    2.2   282     3.7   947.3    0.00 
 108   20:20   0.00   66.5    25    3.1   328     4.2   947.3    0.00 
 108   20:30   0.00   66.1    25    3.8   335     5.8   947.4    0.00 
 108   20:40   0.00   65.4    26    4.7   330     5.5   947.5    0.00 
 108   20:50   0.00   64.6    27    5.3   334     6.1   947.5    0.00 
 108   21:00   0.00   64.2    28    4.6   343     6.6   947.5    0.00 
 108   21:10   0.00   64.2    30    3.5   355     4.7   947.5    0.00 
 108   21:20   0.00   64.1    32    1.2    29     2.5   947.5    0.00 
 108   21:30   0.00   63.3    39    1.3   138     2.0   947.4    0.00 
 108   21:40   0.00   63.3    39    0.8    83     2.9   947.4    0.00 
 108   21:50   0.00   62.8    44    2.7   116     3.3   947.4    0.00 
 108   22:00   0.00   62.2    47    4.1   119     5.6   947.4    0.00 
 108   22:10   0.00   62.0    47    3.7   118     5.3   947.5    0.00 
 108   22:20   0.00   61.7    48    1.9    88     3.4   947.5    0.00 
 108   22:30   0.00   62.1    46    0.9     9     3.5   947.5    0.00 
 108   22:40   0.00   62.2    47    1.9    25     3.7   947.4    0.00 
 108   22:50   0.00   61.9    48    3.3    13     4.7   947.4    0.00 
 108   23:00   0.00   61.3    50    3.7    19     4.6   947.3    0.00 
 108   23:10   0.00   61.1    51    2.4    22     3.3   947.3    0.00 
 108   23:20   0.00   60.8    50    2.8   348     3.4   947.4    0.00 
 108   23:30   0.00   59.8    50    3.2   321     4.5   947.3    0.00 
 108   23:40   0.00   59.6    53    4.0   321     4.5   947.3    0.00 
 108   23:50   0.00   59.2    54    4.7   309     5.2   947.2    0.00 
 109    0:00   0.00   59.2    53    3.8   326     4.7   947.2    0.00 
 109    0:10   0.00   58.7    55    4.3   307     5.4   947.0    0.00 
 109    0:20   0.00   58.6    55    4.5   314     6.2   947.0    0.00 
 109    0:30   0.00   58.2    53    4.9   310     6.4   946.8    0.00 

Return to Motte Rimrock Reserve graphs page.


Western Regional Climate Center,wrcc@dri.edu